Аэропорт: Магнитогорск. Магнитогорск

ICAO: USCM

METAR:
2022-01-28 07:30:00
USCM 280730Z 01002MPS 6000 OVC006 M17/M19 Q1019 R36/090060 TEMPO 0500 FZFG VV003 RMK QFE725
METAR:
Информация по данной станции не доступна